Time;durP1;ratioP1;P1;durP2;ratioP2;P2;SDS_P1;SDS_P2;PMS_P1;PMS_P2;Temp;Humidity;BMP_temperature;BMP_pressure;BME280_temperature;BME280_humidity;BME280_pressure;Samples;Min_cycle;Max_cycle;Signal;HPM_P1;HPM_P2
2024/02/05 00:01:10;;;;;;;23.90;4.53;;;;;;;;;;5075407;28;20259;-32
2024/02/05 00:03:35;;;;;;;28.92;4.70;;;;;;;;;;5075169;28;20044;-31
2024/02/05 00:06:01;;;;;;;21.25;4.32;;;;;;;;;;5075889;28;20020;-32
2024/02/05 00:08:26;;;;;;;26.33;4.68;;;;;;;;;;5075624;28;20529;-32
2024/02/05 00:10:52;;;;;;;24.60;3.92;;;;;;;;;;5075464;28;20119;-32
2024/02/05 00:13:17;;;;;;;25.88;4.38;;;;;;;;;;5075040;28;20016;-32
2024/02/05 00:15:42;;;;;;;20.40;4.03;;;;;;;;;;5075146;28;20021;-32
2024/02/05 00:18:07;;;;;;;23.40;4.40;;;;;;;;;;5075612;28;20020;-31
2024/02/05 00:20:33;;;;;;;26.43;4.40;;;;;;;;;;5074887;28;20602;-32
2024/02/05 00:22:59;;;;;;;33.15;4.65;;;;;;;;;;5075112;28;20255;-33
2024/02/05 00:25:24;;;;;;;28.80;5.00;;;;;;;;;;5074868;28;20513;-32
2024/02/05 00:27:49;;;;;;;19.50;4.03;;;;;;;;;;5075518;28;20254;-32
2024/02/05 00:30:14;;;;;;;20.93;4.27;;;;;;;;;;5074852;28;20722;-32
2024/02/05 00:32:40;;;;;;;22.98;4.32;;;;;;;;;;5074972;28;20283;-31
2024/02/05 00:35:05;;;;;;;32.75;4.63;;;;;;;;;;5074826;28;20108;-32
2024/02/05 00:37:30;;;;;;;26.05;4.72;;;;;;;;;;5075339;28;20043;-32
2024/02/05 00:39:55;;;;;;;23.77;4.45;;;;;;;;;;5075299;28;20013;-32
2024/02/05 00:42:21;;;;;;;36.30;4.38;;;;;;;;;;5074938;28;20028;-32
2024/02/05 00:44:46;;;;;;;36.10;5.40;;;;;;;;;;5074579;28;20460;-32
2024/02/05 00:47:11;;;;;;;35.50;5.33;;;;;;;;;;5075087;28;20258;-32
2024/02/05 00:49:36;;;;;;;28.90;4.50;;;;;;;;;;5074775;28;20291;-32
2024/02/05 00:52:02;;;;;;;34.15;5.68;;;;;;;;;;5074389;28;20113;-32
2024/02/05 00:54:27;;;;;;;30.20;4.35;;;;;;;;;;5074676;28;20093;-32
2024/02/05 00:56:52;;;;;;;33.45;4.55;;;;;;;;;;5074675;28;20452;-32
2024/02/05 00:59:18;;;;;;;30.23;5.40;;;;;;;;;;5074411;28;20021;-37
2024/02/05 01:01:45;;;;;;;34.05;5.50;;;;;;;;;;5074796;28;20243;-32
2024/02/05 01:04:10;;;;;;;30.58;5.85;;;;;;;;;;5074121;28;20045;-33
2024/02/05 01:06:36;;;;;;;31.85;5.25;;;;;;;;;;5074429;28;20016;-33
2024/02/05 01:09:04;;;;;;;35.47;5.05;;;;;;;;;;5074213;28;20456;-33
2024/02/05 01:11:29;;;;;;;34.75;5.72;;;;;;;;;;5074297;28;20373;-32
2024/02/05 01:13:54;;;;;;;25.40;4.73;;;;;;;;;;5074067;28;20028;-33
2024/02/05 01:16:20;;;;;;;35.00;5.10;;;;;;;;;;5074101;28;20334;-33
2024/02/05 01:18:45;;;;;;;31.70;4.63;;;;;;;;;;5074497;28;20251;-33
2024/02/05 01:21:10;;;;;;;29.27;4.57;;;;;;;;;;5074237;28;20346;-33
2024/02/05 01:23:35;;;;;;;33.97;5.53;;;;;;;;;;5073893;28;20423;-32
2024/02/05 01:26:00;;;;;;;25.73;4.30;;;;;;;;;;5074452;28;20254;-32
2024/02/05 01:28:25;;;;;;;37.47;5.10;;;;;;;;;;5074008;28;20302;-32
2024/02/05 01:30:51;;;;;;;29.60;5.40;;;;;;;;;;5073744;28;20254;-33
2024/02/05 01:33:16;;;;;;;33.37;5.27;;;;;;;;;;5074177;28;20020;-33
2024/02/05 01:35:42;;;;;;;34.55;5.30;;;;;;;;;;5073614;28;20729;-33
2024/02/05 01:38:07;;;;;;;30.92;4.95;;;;;;;;;;5073961;28;20468;-33
2024/02/05 01:40:34;;;;;;;28.35;4.43;;;;;;;;;;5073907;28;20040;-33
2024/02/05 01:42:59;;;;;;;33.97;5.45;;;;;;;;;;5073953;28;20052;-33
2024/02/05 01:45:25;;;;;;;34.03;5.80;;;;;;;;;;5074311;28;20129;-33
2024/02/05 01:47:50;;;;;;;33.78;6.18;;;;;;;;;;5072575;28;20025;-33
2024/02/05 01:50:17;;;;;;;30.50;4.75;;;;;;;;;;5073751;28;20020;-33
2024/02/05 01:52:47;;;;;;;35.85;5.97;;;;;;;;;;5073480;28;20077;-32
2024/02/05 01:55:14;;;;;;;29.77;5.40;;;;;;;;;;5073346;28;20021;-33
2024/02/05 01:57:39;;;;;;;37.67;5.22;;;;;;;;;;5074125;28;20032;-33
2024/02/05 02:00:05;;;;;;;31.73;5.30;;;;;;;;;;5074018;28;20440;-32
2024/02/05 02:02:30;;;;;;;28.85;5.07;;;;;;;;;;5073338;28;20487;-32
2024/02/05 02:04:57;;;;;;;31.65;4.97;;;;;;;;;;5073304;28;20044;-32
2024/02/05 02:07:23;;;;;;;30.95;4.63;;;;;;;;;;5073904;28;20016;-32
2024/02/05 02:09:49;;;;;;;26.83;5.07;;;;;;;;;;5073358;28;20387;-31
2024/02/05 02:12:14;;;;;;;35.10;5.18;;;;;;;;;;5073180;28;20329;-31
2024/02/05 02:14:39;;;;;;;30.07;4.60;;;;;;;;;;5073486;28;20020;-31
2024/02/05 02:17:04;;;;;;;31.20;4.72;;;;;;;;;;5073504;28;20801;-32
2024/02/05 02:19:29;;;;;;;26.23;4.20;;;;;;;;;;5073233;28;20091;-31
2024/02/05 02:22:07;;;;;;;34.22;5.20;;;;;;;;;;5073767;28;20074;-32
2024/02/05 02:24:34;;;;;;;37.60;5.97;;;;;;;;;;5073247;28;20468;-32
2024/02/05 02:26:59;;;;;;;31.80;4.45;;;;;;;;;;5073689;28;20017;-31
2024/02/05 02:29:24;;;;;;;33.10;5.10;;;;;;;;;;5073732;28;20058;-33
2024/02/05 02:31:54;;;;;;;33.40;4.73;;;;;;;;;;5073043;28;20254;-33
2024/02/05 02:34:24;;;;;;;39.30;5.95;;;;;;;;;;5073581;28;20020;-32
2024/02/05 02:36:55;;;;;;;32.80;5.95;;;;;;;;;;5073568;28;20018;-32
2024/02/05 02:39:24;;;;;;;35.53;4.90;;;;;;;;;;5073312;28;20019;-32
2024/02/05 02:41:51;;;;;;;32.30;4.78;;;;;;;;;;5074243;28;20360;-31
2024/02/05 02:44:17;;;;;;;26.88;4.70;;;;;;;;;;5077529;28;20029;-33
2024/02/05 02:46:42;;;;;;;33.28;5.10;;;;;;;;;;5076915;28;20021;-32
2024/02/05 02:49:08;;;;;;;34.40;5.53;;;;;;;;;;5076949;28;20028;-33
2024/02/05 02:51:33;;;;;;;30.10;5.93;;;;;;;;;;5077408;28;20025;-32
2024/02/05 02:53:59;;;;;;;30.13;5.30;;;;;;;;;;5076691;28;20016;-32
2024/02/05 02:56:24;;;;;;;36.10;5.10;;;;;;;;;;5077017;28;20020;-32
2024/02/05 02:58:50;;;;;;;25.77;5.00;;;;;;;;;;5076667;28;20452;-32
2024/02/05 03:01:15;;;;;;;31.48;4.97;;;;;;;;;;5076620;28;20293;-33
2024/02/05 03:03:40;;;;;;;29.00;5.05;;;;;;;;;;5076569;28;20093;-31
2024/02/05 03:06:06;;;;;;;30.33;5.00;;;;;;;;;;5077174;28;20027;-32
2024/02/05 03:08:31;;;;;;;28.33;4.90;;;;;;;;;;5076505;28;20607;-32
2024/02/05 03:10:56;;;;;;;30.50;5.77;;;;;;;;;;5076422;28;20024;-31
2024/02/05 03:13:22;;;;;;;29.57;5.13;;;;;;;;;;5076310;28;20267;-32
2024/02/05 03:15:47;;;;;;;35.00;6.20;;;;;;;;;;5076864;28;20259;-33
2024/02/05 03:18:13;;;;;;;41.53;5.22;;;;;;;;;;5076538;28;20789;-32
2024/02/05 03:20:39;;;;;;;35.08;5.22;;;;;;;;;;5076487;28;20103;-33
2024/02/05 03:23:05;;;;;;;32.72;5.45;;;;;;;;;;5076434;28;20063;-32
2024/02/05 03:25:31;;;;;;;30.60;5.07;;;;;;;;;;5076176;28;20016;-33
2024/02/05 03:27:56;;;;;;;29.80;5.22;;;;;;;;;;5076415;28;20027;-33
2024/02/05 03:30:22;;;;;;;34.40;4.75;;;;;;;;;;5076302;28;20032;-32
2024/02/05 03:32:47;;;;;;;35.72;4.82;;;;;;;;;;5075996;28;20020;-32
2024/02/05 03:35:15;;;;;;;31.13;5.30;;;;;;;;;;5075949;28;20020;-32
2024/02/05 03:37:41;;;;;;;35.80;5.18;;;;;;;;;;5075916;28;20008;-32
2024/02/05 03:40:06;;;;;;;42.25;5.47;;;;;;;;;;5075920;28;20028;-32
2024/02/05 03:42:31;;;;;;;34.95;5.70;;;;;;;;;;5076097;28;20538;-31
2024/02/05 03:44:56;;;;;;;27.80;4.30;;;;;;;;;;5075831;28;20016;-32
2024/02/05 03:47:22;;;;;;;39.30;6.20;;;;;;;;;;5076043;28;20283;-32
2024/02/05 03:49:47;;;;;;;27.92;4.80;;;;;;;;;;5076000;28;20259;-32
2024/02/05 03:52:12;;;;;;;22.70;4.27;;;;;;;;;;5075604;28;20375;-32
2024/02/05 03:54:38;;;;;;;24.95;4.60;;;;;;;;;;5075260;28;20312;-32
2024/02/05 03:57:03;;;;;;;36.03;5.18;;;;;;;;;;5076096;28;20021;-32
2024/02/05 03:59:28;;;;;;;36.92;5.35;;;;;;;;;;5076172;28;20028;-32
2024/02/05 04:01:53;;;;;;;36.85;5.57;;;;;;;;;;5076021;28;20020;-32
2024/02/05 04:04:19;;;;;;;31.00;5.20;;;;;;;;;;5075630;28;20040;-33
2024/02/05 04:06:44;;;;;;;32.60;5.28;;;;;;;;;;5075432;28;20251;-32
2024/02/05 04:09:09;;;;;;;36.83;5.67;;;;;;;;;;5075827;28;20016;-32
2024/02/05 04:11:37;;;;;;;28.90;4.70;;;;;;;;;;5075489;28;20262;-32
2024/02/05 04:14:03;;;;;;;28.15;5.50;;;;;;;;;;5075195;28;20020;-32
2024/02/05 04:16:28;;;;;;;37.27;5.03;;;;;;;;;;5075651;28;20017;-31
2024/02/05 04:18:54;;;;;;;29.45;4.50;;;;;;;;;;5075417;28;20247;-32
2024/02/05 04:21:19;;;;;;;36.20;5.32;;;;;;;;;;5075341;28;20020;-33
2024/02/05 04:23:44;;;;;;;38.58;4.65;;;;;;;;;;5074980;28;20028;-32
2024/02/05 04:26:13;;;;;;;25.67;4.20;;;;;;;;;;5075045;28;20024;-33
2024/02/05 04:28:38;;;;;;;33.00;5.10;;;;;;;;;;5075447;28;20290;-32
2024/02/05 04:31:03;;;;;;;37.13;5.50;;;;;;;;;;5073654;28;20020;-32
2024/02/05 04:33:28;;;;;;;25.80;4.45;;;;;;;;;;5075086;28;20357;-31
2024/02/05 04:35:54;;;;;;;41.10;5.35;;;;;;;;;;5075026;28;20353;-32
2024/02/05 04:38:19;;;;;;;35.70;5.13;;;;;;;;;;5075056;28;20375;-33
2024/02/05 04:40:44;;;;;;;28.60;4.23;;;;;;;;;;5075292;28;20095;-32
2024/02/05 04:43:09;;;;;;;28.97;4.83;;;;;;;;;;5074638;28;20255;-32
2024/02/05 04:45:34;;;;;;;33.50;5.33;;;;;;;;;;5075232;28;20304;-32
2024/02/05 04:48:00;;;;;;;33.50;5.37;;;;;;;;;;5075162;28;20253;-32
2024/02/05 04:50:25;;;;;;;29.60;4.82;;;;;;;;;;5074516;28;20255;-33
2024/02/05 04:52:50;;;;;;;22.13;4.37;;;;;;;;;;5075013;28;20055;-31
2024/02/05 04:55:15;;;;;;;28.53;5.10;;;;;;;;;;5074463;28;20738;-32
2024/02/05 04:57:46;;;;;;;27.95;4.60;;;;;;;;;;5074580;28;20261;-32
2024/02/05 05:00:11;;;;;;;37.92;5.28;;;;;;;;;;5074639;28;20016;-32
2024/02/05 05:02:36;;;;;;;32.03;5.68;;;;;;;;;;5074295;28;20498;-32
2024/02/05 05:05:01;;;;;;;26.67;4.97;;;;;;;;;;5073528;28;20076;-32
2024/02/05 05:07:27;;;;;;;35.03;5.40;;;;;;;;;;5074024;28;20254;-32
2024/02/05 05:09:52;;;;;;;32.23;4.93;;;;;;;;;;5072919;28;20258;-32
2024/02/05 05:12:18;;;;;;;32.22;5.15;;;;;;;;;;5074227;28;20480;-32
2024/02/05 05:14:43;;;;;;;27.55;4.82;;;;;;;;;;5074345;28;20048;-32
2024/02/05 05:17:08;;;;;;;24.97;4.53;;;;;;;;;;5074330;28;20023;-32
2024/02/05 05:19:33;;;;;;;21.90;4.50;;;;;;;;;;5072693;28;20263;-32
2024/02/05 05:21:59;;;;;;;25.58;4.55;;;;;;;;;;5073896;28;20650;-32
2024/02/05 05:24:24;;;;;;;29.87;5.00;;;;;;;;;;5073898;28;20024;-32
2024/02/05 05:26:49;;;;;;;33.43;5.23;;;;;;;;;;5073864;28;20788;-33
2024/02/05 05:29:14;;;;;;;33.00;6.83;;;;;;;;;;5074306;28;20362;-33
2024/02/05 05:31:39;;;;;;;34.33;4.80;;;;;;;;;;5073790;28;20247;-33
2024/02/05 05:34:05;;;;;;;29.33;5.33;;;;;;;;;;5073955;28;20285;-32
2024/02/05 05:36:31;;;;;;;35.22;5.88;;;;;;;;;;5073732;28;20251;-32
2024/02/05 05:38:57;;;;;;;34.80;6.05;;;;;;;;;;5073649;28;20070;-32
2024/02/05 05:41:22;;;;;;;31.83;5.57;;;;;;;;;;5073619;28;20432;-32
2024/02/05 05:43:48;;;;;;;31.47;5.20;;;;;;;;;;5074139;28;20255;-33
2024/02/05 05:46:13;;;;;;;36.30;5.30;;;;;;;;;;5073792;28;20618;-32
2024/02/05 05:48:38;;;;;;;24.60;4.90;;;;;;;;;;5073857;28;20119;-33
2024/02/05 05:51:03;;;;;;;33.27;5.40;;;;;;;;;;5073469;28;20251;-32
2024/02/05 05:53:28;;;;;;;30.42;5.38;;;;;;;;;;5073517;28;20279;-32
2024/02/05 05:55:53;;;;;;;35.00;5.93;;;;;;;;;;5073403;28;20025;-32
2024/02/05 05:58:19;;;;;;;28.10;4.95;;;;;;;;;;5073612;28;20708;-32
2024/02/05 06:00:44;;;;;;;28.98;5.35;;;;;;;;;;5073697;28;20443;-33
2024/02/05 06:03:11;;;;;;;37.10;5.60;;;;;;;;;;5071908;28;20020;-32
2024/02/05 06:05:36;;;;;;;28.52;5.03;;;;;;;;;;5071515;28;20021;-32
2024/02/05 06:08:01;;;;;;;29.30;4.80;;;;;;;;;;5071246;28;20141;-32
2024/02/05 06:10:27;;;;;;;32.45;5.15;;;;;;;;;;5071455;28;20334;-33
2024/02/05 06:12:52;;;;;;;34.17;4.90;;;;;;;;;;5071237;28;20025;-32
2024/02/05 06:15:17;;;;;;;42.90;4.67;;;;;;;;;;5071129;28;20254;-32
2024/02/05 06:17:42;;;;;;;31.03;6.03;;;;;;;;;;5075622;28;20262;-32
2024/02/05 06:20:08;;;;;;;32.53;5.03;;;;;;;;;;5079170;28;20338;-32
2024/02/05 06:22:34;;;;;;;34.67;4.80;;;;;;;;;;5080120;28;20395;-32
2024/02/05 06:24:59;;;;;;;23.25;4.70;;;;;;;;;;5080123;28;20460;-33
2024/02/05 06:27:24;;;;;;;32.63;4.87;;;;;;;;;;5079811;28;20027;-32
2024/02/05 06:29:50;;;;;;;29.17;5.07;;;;;;;;;;5080080;28;20266;-36
2024/02/05 06:32:16;;;;;;;36.33;5.57;;;;;;;;;;5079696;28;20285;-33
2024/02/05 06:34:41;;;;;;;33.47;5.27;;;;;;;;;;5080214;28;20087;-33
2024/02/05 06:37:06;;;;;;;30.58;5.10;;;;;;;;;;5079603;28;20259;-32
2024/02/05 06:39:32;;;;;;;36.77;5.67;;;;;;;;;;5079648;28;20021;-32
2024/02/05 06:41:57;;;;;;;26.20;4.70;;;;;;;;;;5079947;28;20316;-32
2024/02/05 06:44:22;;;;;;;23.73;4.75;;;;;;;;;;5079646;28;20287;-32
2024/02/05 06:46:47;;;;;;;31.73;5.07;;;;;;;;;;5079501;28;20044;-32
2024/02/05 06:49:14;;;;;;;35.80;5.20;;;;;;;;;;5079651;28;20721;-33
2024/02/05 06:51:39;;;;;;;27.90;4.65;;;;;;;;;;5079896;28;20016;-32
2024/02/05 06:54:05;;;;;;;42.13;5.23;;;;;;;;;;5080003;28;20020;-32
2024/02/05 06:56:30;;;;;;;22.03;4.10;;;;;;;;;;5079430;28;20716;-32
2024/02/05 06:58:56;;;;;;;35.80;5.47;;;;;;;;;;5080004;28;20247;-32
2024/02/05 07:01:22;;;;;;;33.00;4.88;;;;;;;;;;5079673;28;20772;-32
2024/02/05 07:03:47;;;;;;;31.50;4.95;;;;;;;;;;5079495;28;20052;-32
2024/02/05 07:06:12;;;;;;;40.33;6.15;;;;;;;;;;5078235;28;20016;-32
2024/02/05 07:08:37;;;;;;;36.70;4.80;;;;;;;;;;5079178;28;20017;-33
2024/02/05 07:11:02;;;;;;;33.35;5.22;;;;;;;;;;5079621;28;20393;-32
2024/02/05 07:13:28;;;;;;;31.63;4.93;;;;;;;;;;5079462;28;20055;-33
2024/02/05 07:15:53;;;;;;;37.27;4.73;;;;;;;;;;5079301;28;20070;-32
2024/02/05 07:18:18;;;;;;;28.63;4.67;;;;;;;;;;5079824;28;20259;-32
2024/02/05 07:20:43;;;;;;;29.77;5.23;;;;;;;;;;5079882;28;20312;-32
2024/02/05 07:23:08;;;;;;;29.43;5.13;;;;;;;;;;5079280;28;20255;-33
2024/02/05 07:25:38;;;;;;;38.40;5.10;;;;;;;;;;5079220;28;20294;-33
2024/02/05 07:28:04;;;;;;;29.70;4.82;;;;;;;;;;5077954;28;20295;-32
2024/02/05 07:30:30;;;;;;;27.48;5.18;;;;;;;;;;5075811;28;20055;-32
2024/02/05 07:32:55;;;;;;;32.25;5.60;;;;;;;;;;5075899;28;20452;-32
2024/02/05 07:35:23;;;;;;;32.80;6.10;;;;;;;;;;5076452;28;20182;-32
2024/02/05 07:37:48;;;;;;;34.10;5.28;;;;;;;;;;5076234;28;20779;-33
2024/02/05 07:40:13;;;;;;;34.47;6.00;;;;;;;;;;5075816;28;20099;-33
2024/02/05 07:42:39;;;;;;;32.05;5.57;;;;;;;;;;5075824;28;20031;-32
2024/02/05 07:45:04;;;;;;;32.22;5.22;;;;;;;;;;5076062;28;20032;-33
2024/02/05 07:47:29;;;;;;;29.40;5.13;;;;;;;;;;5075846;28;20016;-32
2024/02/05 07:49:55;;;;;;;28.00;6.05;;;;;;;;;;5075971;28;20029;-33
2024/02/05 07:52:21;;;;;;;30.10;6.80;;;;;;;;;;5075770;28;20026;-33
2024/02/05 07:54:46;;;;;;;29.92;5.47;;;;;;;;;;5075853;28;20017;-33
2024/02/05 07:57:11;;;;;;;29.33;5.73;;;;;;;;;;5076222;28;20075;-33
2024/02/05 07:59:36;;;;;;;26.80;4.80;;;;;;;;;;5076054;28;20255;-32
2024/02/05 08:02:01;;;;;;;44.38;5.78;;;;;;;;;;5075385;28;20614;-32
2024/02/05 08:04:27;;;;;;;27.83;5.50;;;;;;;;;;5075383;28;20040;-33
2024/02/05 08:06:52;;;;;;;27.40;5.72;;;;;;;;;;5075398;28;20028;-33
2024/02/05 08:09:17;;;;;;;50.97;6.93;;;;;;;;;;5075895;28;20070;-32
2024/02/05 08:11:44;;;;;;;37.10;5.47;;;;;;;;;;5075446;28;20303;-32
2024/02/05 08:14:10;;;;;;;35.33;5.82;;;;;;;;;;5075099;28;20040;-32
2024/02/05 08:16:35;;;;;;;36.20;6.68;;;;;;;;;;5076335;28;20102;-32
2024/02/05 08:19:00;;;;;;;27.88;5.50;;;;;;;;;;5075449;28;20480;-32
2024/02/05 08:21:26;;;;;;;32.35;6.53;;;;;;;;;;5075408;28;20019;-33
2024/02/05 08:23:51;;;;;;;33.60;6.18;;;;;;;;;;5075034;28;20059;-33
2024/02/05 08:26:17;;;;;;;30.50;5.17;;;;;;;;;;5075690;28;20096;-32
2024/02/05 08:28:42;;;;;;;27.58;5.38;;;;;;;;;;5075047;28;20733;-32
2024/02/05 08:31:08;;;;;;;30.73;5.63;;;;;;;;;;5074929;28;20023;-33
2024/02/05 08:33:33;;;;;;;34.53;6.47;;;;;;;;;;5075380;28;20103;-33
2024/02/05 08:35:58;;;;;;;35.10;6.40;;;;;;;;;;5075012;28;20263;-33
2024/02/05 08:38:24;;;;;;;33.15;6.30;;;;;;;;;;5073482;28;20017;-33
2024/02/05 08:40:49;;;;;;;32.08;6.35;;;;;;;;;;5074860;28;20042;-32
2024/02/05 08:43:14;;;;;;;34.30;6.25;;;;;;;;;;5074951;28;20095;-32
2024/02/05 08:45:39;;;;;;;59.27;8.40;;;;;;;;;;5074604;28;20028;-33
2024/02/05 08:48:06;;;;;;;30.52;6.20;;;;;;;;;;5075476;28;20332;-32
2024/02/05 08:50:33;;;;;;;32.20;5.97;;;;;;;;;;5074764;28;20028;-32
2024/02/05 08:52:59;;;;;;;28.67;5.72;;;;;;;;;;5074649;28;20040;-32
2024/02/05 08:55:24;;;;;;;30.20;5.80;;;;;;;;;;5074342;28;20012;-33
2024/02/05 08:57:50;;;;;;;22.80;4.90;;;;;;;;;;5074975;28;20009;-33
2024/02/05 09:00:17;;;;;;;28.25;5.75;;;;;;;;;;5074575;28;20262;-32
2024/02/05 09:02:42;;;;;;;37.50;6.28;;;;;;;;;;5073040;28;20028;-32
2024/02/05 09:05:08;;;;;;;35.25;5.95;;;;;;;;;;5074177;28;20050;-33
2024/02/05 09:07:34;;;;;;;42.75;6.70;;;;;;;;;;5074198;28;20021;-33
2024/02/05 09:09:59;;;;;;;42.42;6.53;;;;;;;;;;5074336;28;20028;-32
2024/02/05 09:12:24;;;;;;;35.50;5.53;;;;;;;;;;5074274;28;20321;-32
2024/02/05 09:14:50;;;;;;;31.50;6.20;;;;;;;;;;5073920;28;20342;-32
2024/02/05 09:17:18;;;;;;;37.47;6.18;;;;;;;;;;5074227;28;20016;-33
2024/02/05 09:19:44;;;;;;;31.00;5.20;;;;;;;;;;5074056;28;20020;-33
2024/02/05 09:22:09;;;;;;;27.27;5.78;;;;;;;;;;5073955;28;20020;-33
2024/02/05 09:24:34;;;;;;;28.25;5.72;;;;;;;;;;5073974;28;20483;-33
2024/02/05 09:26:59;;;;;;;25.95;5.32;;;;;;;;;;5074317;28;20403;-32
2024/02/05 09:29:24;;;;;;;36.50;6.87;;;;;;;;;;5073758;28;20459;-33
2024/02/05 09:31:50;;;;;;;31.40;5.70;;;;;;;;;;5073720;28;20286;-33
2024/02/05 09:34:15;;;;;;;30.97;5.20;;;;;;;;;;5073645;28;20066;-32
2024/02/05 09:36:40;;;;;;;31.23;5.13;;;;;;;;;;5073994;28;20760;-33
2024/02/05 09:39:05;;;;;;;38.33;5.50;;;;;;;;;;5073708;28;20027;-32
2024/02/05 09:41:32;;;;;;;36.45;5.88;;;;;;;;;;5073713;28;20017;-33
2024/02/05 09:43:58;;;;;;;33.20;5.13;;;;;;;;;;5073852;28;20017;-33
2024/02/05 09:46:25;;;;;;;39.58;6.38;;;;;;;;;;5073756;28;20524;-33
2024/02/05 09:48:51;;;;;;;30.77;5.07;;;;;;;;;;5073846;28;20111;-33
2024/02/05 09:51:17;;;;;;;33.65;4.93;;;;;;;;;;5073601;28;20414;-33
2024/02/05 09:53:43;;;;;;;32.38;5.70;;;;;;;;;;5073692;28;20047;-32
2024/02/05 09:56:09;;;;;;;32.92;6.25;;;;;;;;;;5073356;28;20013;-33
2024/02/05 09:58:34;;;;;;;32.65;6.00;;;;;;;;;;5073447;28;20015;-33
2024/02/05 10:01:00;;;;;;;22.55;5.00;;;;;;;;;;5073378;28;20040;-33
2024/02/05 10:03:27;;;;;;;38.13;5.20;;;;;;;;;;5073809;28;20027;-32
2024/02/05 10:05:54;;;;;;;38.78;6.28;;;;;;;;;;5073266;28;20020;-33
2024/02/05 10:08:20;;;;;;;30.00;5.70;;;;;;;;;;5073309;28;20017;-33
2024/02/05 10:10:46;;;;;;;32.20;5.88;;;;;;;;;;5073311;28;20022;-33
2024/02/05 10:13:13;;;;;;;41.40;5.50;;;;;;;;;;5073122;28;20132;-33
2024/02/05 10:15:41;;;;;;;30.20;5.15;;;;;;;;;;5073834;28;20104;-33
2024/02/05 10:18:06;;;;;;;33.33;5.75;;;;;;;;;;5073579;28;20017;-33
2024/02/05 10:20:34;;;;;;;28.95;5.35;;;;;;;;;;5073590;28;20078;-34
2024/02/05 10:22:59;;;;;;;36.95;5.32;;;;;;;;;;5073158;28;20016;-33
2024/02/05 10:25:25;;;;;;;37.43;5.47;;;;;;;;;;5073799;28;20024;-34
2024/02/05 10:27:58;;;;;;;37.67;5.00;;;;;;;;;;5073208;28;20304;-33
2024/02/05 10:30:26;;;;;;;30.15;5.85;;;;;;;;;;5073188;28;20070;-33
2024/02/05 10:32:54;;;;;;;36.13;5.43;;;;;;;;;;5073045;28;20017;-33
2024/02/05 10:35:20;;;;;;;30.90;5.05;;;;;;;;;;5073595;28;20021;-33
2024/02/05 10:37:45;;;;;;;30.83;5.57;;;;;;;;;;5073591;28;20031;-33
2024/02/05 10:40:10;;;;;;;28.67;5.27;;;;;;;;;;5073316;28;20317;-33
2024/02/05 10:42:35;;;;;;;33.53;5.45;;;;;;;;;;5073584;28;20606;-33
2024/02/05 10:45:04;;;;;;;31.95;5.80;;;;;;;;;;5073046;28;20030;-34
2024/02/05 10:47:30;;;;;;;34.13;5.93;;;;;;;;;;5073041;28;20365;-33
2024/02/05 10:49:57;;;;;;;30.73;5.57;;;;;;;;;;5071771;28;20024;-34
2024/02/05 10:52:23;;;;;;;33.05;5.88;;;;;;;;;;5073002;28;20107;-34
2024/02/05 10:54:50;;;;;;;29.35;5.80;;;;;;;;;;5071735;28;20107;-33
2024/02/05 10:57:17;;;;;;;29.23;5.00;;;;;;;;;;5072894;28;20108;-34
2024/02/05 10:59:43;;;;;;;40.25;6.40;;;;;;;;;;5072970;28;20020;-33
2024/02/05 11:02:16;;;;;;;37.45;6.32;;;;;;;;;;5071582;28;20082;-34
2024/02/05 11:04:41;;;;;;;;;;;;;;;;;;5075420;28;20052;-33
2024/02/05 11:07:08;;;;;;;26.98;5.43;;;;;;;;;;5075239;28;19904;-34
2024/02/05 11:09:36;;;;;;;33.17;6.32;;;;;;;;;;5076396;28;20020;-33
2024/02/05 11:12:02;;;;;;;33.55;5.38;;;;;;;;;;5076615;28;20487;-34
2024/02/05 11:14:29;;;;;;;35.75;5.28;;;;;;;;;;5076452;28;20012;-33
2024/02/05 11:16:54;;;;;;;39.78;6.13;;;;;;;;;;5076393;28;20138;-33
2024/02/05 11:19:20;;;;;;;39.75;6.32;;;;;;;;;;5076370;28;20058;-33
2024/02/05 11:21:50;;;;;;;44.00;6.75;;;;;;;;;;5076565;28;20414;-34
2024/02/05 11:24:16;;;;;;;34.95;5.80;;;;;;;;;;5075029;28;20030;-33
2024/02/05 11:26:42;;;;;;;37.80;5.13;;;;;;;;;;5076077;28;20107;-33
2024/02/05 11:29:07;;;;;;;40.10;6.25;;;;;;;;;;5076401;28;20024;-33
2024/02/05 11:31:35;;;;;;;33.63;6.40;;;;;;;;;;5076356;28;20043;-33
2024/02/05 11:34:03;;;;;;;43.65;6.95;;;;;;;;;;5076515;28;20328;-33
2024/02/05 11:36:29;;;;;;;43.88;5.40;;;;;;;;;;5075999;28;20016;-33
2024/02/05 11:39:04;;;;;;;38.08;7.22;;;;;;;;;;5076158;28;20133;-33
2024/02/05 11:41:29;;;;;;;49.85;7.50;;;;;;;;;;5075863;28;20047;-33
2024/02/05 11:44:01;;;;;;;33.78;5.18;;;;;;;;;;5076281;28;20016;-33
2024/02/05 11:46:27;;;;;;;40.67;5.68;;;;;;;;;;5076287;28;20056;-33
2024/02/05 11:48:52;;;;;;;46.10;6.13;;;;;;;;;;5076388;28;20025;-33
2024/02/05 11:51:18;;;;;;;37.50;6.13;;;;;;;;;;5075956;28;20015;-34
2024/02/05 11:53:47;;;;;;;33.97;5.57;;;;;;;;;;5075649;28;20102;-33
2024/02/05 11:56:13;;;;;;;36.70;5.90;;;;;;;;;;5075829;28;20251;-33
2024/02/05 11:58:38;;;;;;;33.92;5.93;;;;;;;;;;5075464;28;20378;-33
2024/02/05 12:01:03;;;;;;;24.77;5.38;;;;;;;;;;5076187;28;20031;-34
2024/02/05 12:03:28;;;;;;;39.60;7.55;;;;;;;;;;5075843;28;20464;-33
2024/02/05 12:05:54;;;;;;;30.30;5.43;;;;;;;;;;5075354;28;20035;-33
2024/02/05 12:08:20;;;;;;;31.10;5.28;;;;;;;;;;5075618;28;20052;-33
2024/02/05 12:10:46;;;;;;;24.27;4.47;;;;;;;;;;5075696;28;20123;-33
2024/02/05 12:13:15;;;;;;;35.47;5.70;;;;;;;;;;5075224;28;20278;-33
2024/02/05 12:15:40;;;;;;;37.20;5.28;;;;;;;;;;5074737;28;20069;-34
2024/02/05 12:18:06;;;;;;;30.55;5.05;;;;;;;;;;5075388;28;20013;-33
2024/02/05 12:20:31;;;;;;;30.30;5.22;;;;;;;;;;5075351;28;20020;-34
2024/02/05 12:22:56;;;;;;;41.95;5.10;;;;;;;;;;5075475;28;20517;-33
2024/02/05 12:25:22;;;;;;;43.42;5.68;;;;;;;;;;5075505;28;20031;-33
2024/02/05 12:27:47;;;;;;;33.97;5.95;;;;;;;;;;5075371;28;20013;-33
2024/02/05 12:30:13;;;;;;;43.95;6.18;;;;;;;;;;5075021;28;20020;-33
2024/02/05 12:32:42;;;;;;;29.90;5.78;;;;;;;;;;5074943;28;20023;-34
2024/02/05 12:35:11;;;;;;;33.53;6.38;;;;;;;;;;5075269;28;20031;-33
2024/02/05 12:37:37;;;;;;;29.02;5.35;;;;;;;;;;5074861;28;20478;-33
2024/02/05 12:40:03;;;;;;;32.65;5.20;;;;;;;;;;5074907;28;20044;-33
2024/02/05 12:42:29;;;;;;;46.47;6.18;;;;;;;;;;5074742;28;20055;-33
2024/02/05 12:44:54;;;;;;;41.25;5.65;;;;;;;;;;5073505;28;20073;-33
2024/02/05 12:47:20;;;;;;;40.13;5.47;;;;;;;;;;5075011;28;20024;-33
2024/02/05 12:49:45;;;;;;;36.30;5.07;;;;;;;;;;5074598;28;20532;-33
2024/02/05 12:52:11;;;;;;;35.28;5.30;;;;;;;;;;5074777;28;20056;-33
2024/02/05 12:54:37;;;;;;;35.05;5.88;;;;;;;;;;5074545;28;20074;-33
2024/02/05 12:57:04;;;;;;;37.95;6.38;;;;;;;;;;5074428;28;20096;-34
2024/02/05 12:59:29;;;;;;;35.40;5.75;;;;;;;;;;5073238;28;20036;-33
2024/02/05 13:01:54;;;;;;;26.38;6.07;;;;;;;;;;5074965;28;20365;-34
2024/02/05 13:04:20;;;;;;;37.22;5.90;;;;;;;;;;5074561;28;20494;-33
2024/02/05 13:06:45;;;;;;;31.67;5.22;;;;;;;;;;5073040;28;20032;-33
2024/02/05 13:09:10;;;;;;;39.40;7.13;;;;;;;;;;5074304;28;20381;-33
2024/02/05 13:11:35;;;;;;;29.52;5.20;;;;;;;;;;5074410;28;20251;-32
2024/02/05 13:14:04;;;;;;;29.55;4.75;;;;;;;;;;5074155;28;20148;-33
2024/02/05 13:16:30;;;;;;;29.20;4.40;;;;;;;;;;5074736;28;20020;-33
2024/02/05 13:18:56;;;;;;;31.83;4.82;;;;;;;;;;5074404;28;20022;-33
2024/02/05 13:21:21;;;;;;;32.10;4.38;;;;;;;;;;5073890;28;20115;-33
2024/02/05 13:23:46;;;;;;;28.33;4.60;;;;;;;;;;5074512;28;20020;-33
2024/02/05 13:26:12;;;;;;;30.48;3.95;;;;;;;;;;5073402;28;20591;-34
2024/02/05 13:28:39;;;;;;;21.98;4.22;;;;;;;;;;5074065;28;20020;-33
2024/02/05 13:31:04;;;;;;;32.03;4.10;;;;;;;;;;5074066;28;20412;-33
2024/02/05 13:33:30;;;;;;;29.83;5.07;;;;;;;;;;5073984;28;20112;-32
2024/02/05 13:35:57;;;;;;;28.98;4.65;;;;;;;;;;5074329;28;20017;-33
2024/02/05 13:38:22;;;;;;;34.35;4.85;;;;;;;;;;5074053;28;20090;-32
2024/02/05 13:40:47;;;;;;;29.93;5.20;;;;;;;;;;5073782;28;20472;-33
2024/02/05 13:43:12;;;;;;;29.73;4.03;;;;;;;;;;5072689;28;20324;-33
2024/02/05 13:45:38;;;;;;;26.70;4.43;;;;;;;;;;5073760;28;20060;-33
2024/02/05 13:48:03;;;;;;;20.42;4.07;;;;;;;;;;5073568;28;20331;-33
2024/02/05 13:50:28;;;;;;;29.48;5.85;;;;;;;;;;5073534;28;20024;-33
2024/02/05 13:52:58;;;;;;;25.88;3.40;;;;;;;;;;5073763;28;20016;-33
2024/02/05 13:55:23;;;;;;;21.55;3.38;;;;;;;;;;5056206;28;20013;-33
2024/02/05 13:57:49;;;;;;;26.17;3.85;;;;;;;;;;5073565;28;20020;-32
2024/02/05 14:00:14;;;;;;;26.30;3.67;;;;;;;;;;5074060;28;20021;-33
2024/02/05 14:02:40;;;;;;;25.10;3.92;;;;;;;;;;5072193;28;20286;-33
2024/02/05 14:05:06;;;;;;;16.55;3.53;;;;;;;;;;5073472;28;20063;-33
2024/02/05 14:07:31;;;;;;;28.35;4.97;;;;;;;;;;5073474;28;20032;-34
2024/02/05 14:09:56;;;;;;;28.95;4.80;;;;;;;;;;5073741;28;20436;-33
2024/02/05 14:12:22;;;;;;;28.63;4.97;;;;;;;;;;5073201;28;20028;-33
2024/02/05 14:14:47;;;;;;;26.02;4.32;;;;;;;;;;5072143;28;20032;-33
2024/02/05 14:17:12;;;;;;;27.57;4.70;;;;;;;;;;5073677;28;20111;-33
2024/02/05 14:19:38;;;;;;;26.10;4.30;;;;;;;;;;5073375;28;20606;-40
2024/02/05 14:22:03;;;;;;;24.08;4.82;;;;;;;;;;5073313;28;20251;-33